aviador You're here:

SCTE Decoded Metar

PUERTO MONTT in CHILE
Report Time2017-11-22 05:00:00
UTC Time2017-11-22 05:19:07
Flight Rules mvfr MVFR
Wind190° at 07 kt
W.Decomp.*RWY 17: 6.9 kt HW 1.3 kt RCW
W.Rank190° ranks 13
Current wind is above 190° avg. (5.3)
Visibility9999 m
Phenomena:N/A
Clouds:Broken 020 Hf
Expected CloudBase > 400 ft AGL from Temp-Dew spread
Ceiling2,000 ft
Temp09°C (ISA -5)
Dew Point08°C (94% RH)
AAT6.0°C
QNH1024 hPa
Density Alt-597 ft
Elevation282 ft
Report Wrong Elevation
Raw Report
SCTE 220500Z 19007KT 9999 BKN020 09/08 Q1024 NOSIG=

Extra information for SCTE:More info

Metar Taf Metar & Taf Last 4 Metars F.Rules Stats Wind Profile Meteogram Temp Stats Airport Information Weather charts Add Link Nearby VenuesMetar ALERT Operation Metar Decoded Social comments